Terminal Aerodrome Forecast
Issued by NWS

Home | Current Version | Previous Version | Text Only | Print | Product List | Glossary On
Versions: 1 2 3 4 5 6 7 8 9 10 11 12 13
000
FTUS44 KJAN 261126
TAFGTR
TAF
KGTR 261126Z 2612/2712 26004KT 6SM BR SCT005
     FM261230 29005KT 6SM BR BKN006
     FM261400 34010KT P6SM FEW025
     FM270000 01006KT P6SM SCT200=

USA.gov is the U.S. government's official web portal to all federal, state and local government web resources and services.